Time,TemperatureF,DewpointF,PressureIn,WindDirection,WindDirectionDegrees,WindSpeedMPH,WindSpeedGustMPH,Humidity,HourlyPrecipIn,Conditions,Clouds,dailyrainin,SoftwareType,DateUTC
2013-10-03 00:11:00,58.0,41.0,29.94,NW,325,0.0,1.0,54,0.00,,,0.00,,2013-10-03 07:11:00,
2013-10-03 00:22:00,59.0,38.0,29.94,NW,325,0.0,2.0,46,0.00,,,0.00,,2013-10-03 07:22:00,
2013-10-03 00:52:00,61.0,38.0,29.94,NW,319,1.0,5.0,43,0.00,,,0.00,,2013-10-03 07:52:00,
2013-10-03 01:22:00,60.0,39.0,29.95,NNW,333,1.0,4.0,45,0.00,,,0.00,,2013-10-03 08:22:00,
2013-10-03 01:42:00,59.0,39.0,29.95,NNW,338,0.0,3.0,47,0.00,,,0.00,,2013-10-03 08:42:00,
2013-10-03 01:52:00,58.0,38.0,29.96,NNW,337,0.0,2.0,48,0.00,,,0.00,,2013-10-03 08:52:00,
2013-10-03 02:21:00,58.0,40.0,29.96,NNE,17,0.0,3.0,51,0.00,,,0.00,,2013-10-03 09:21:00,
2013-10-03 02:53:00,57.0,41.0,29.97,NW,316,1.0,4.0,54,0.00,,,0.00,,2013-10-03 09:53:00,
2013-10-03 03:22:00,56.0,40.0,29.97,NNW,327,1.0,4.0,55,0.00,,,0.00,,2013-10-03 10:22:00,
2013-10-03 03:52:00,55.0,39.0,29.97,NNW,342,2.0,7.0,55,0.00,,,0.00,,2013-10-03 10:52:00,
2013-10-03 04:12:00,55.0,39.0,29.98,NNW,347,1.0,6.0,55,0.00,,,0.00,,2013-10-03 11:12:00,
2013-10-03 04:22:00,55.0,40.0,29.98,NNW,331,0.0,1.0,56,0.00,,,0.00,,2013-10-03 11:22:00,
2013-10-03 04:52:00,55.0,39.0,29.98,NNW,331,1.0,8.0,55,0.00,,,0.00,,2013-10-03 11:52:00,
2013-10-03 05:22:00,54.0,39.0,29.98,NNW,338,1.0,5.0,57,0.00,,,0.00,,2013-10-03 12:22:00,
2013-10-03 05:52:00,55.0,39.0,29.98,North,355,2.0,8.0,55,0.00,,,0.00,,2013-10-03 12:52:00,
2013-10-03 06:11:00,54.0,39.0,29.98,NNW,338,0.0,2.0,56,0.00,,,0.00,,2013-10-03 13:11:00,
2013-10-03 06:21:00,54.0,39.0,29.98,NNW,331,0.0,2.0,56,0.00,,,0.00,,2013-10-03 13:21:00,
2013-10-03 06:52:00,54.0,39.0,29.99,NNW,338,0.0,4.0,56,0.00,,,0.00,,2013-10-03 13:52:00,
2013-10-03 07:21:00,53.0,39.0,29.99,NNW,344,0.0,3.0,58,0.00,,,0.00,,2013-10-03 14:21:00,
2013-10-03 07:52:00,54.0,38.0,29.99,NNW,336,1.0,6.0,54,0.00,,,0.00,,2013-10-03 14:52:00,
2013-10-03 08:21:00,56.0,38.0,30.00,NNW,331,3.0,11.0,50,0.00,,,0.00,,2013-10-03 15:21:00,
2013-10-03 08:53:00,57.0,39.0,30.01,NNW,330,4.0,11.0,50,0.00,,,0.00,,2013-10-03 15:53:00,
2013-10-03 09:23:00,58.0,39.0,30.02,NW,319,2.0,7.0,50,0.00,,,0.00,,2013-10-03 16:23:00,
2013-10-03 09:42:00,59.0,39.0,30.02,NNW,348,4.0,10.0,48,0.00,,,0.00,,2013-10-03 16:42:00,
2013-10-03 09:53:00,60.0,40.0,30.02,NNW,335,1.0,9.0,48,0.00,,,0.00,,2013-10-03 16:53:00,
2013-10-03 10:22:00,62.0,39.0,30.01,NNW,344,5.0,10.0,43,0.00,,,0.00,,2013-10-03 17:22:00,
2013-10-03 10:42:00,63.0,38.0,30.02,NW,323,3.0,13.0,40,0.00,,,0.00,,2013-10-03 17:42:00,
2013-10-03 10:52:00,64.0,39.0,30.01,NNW,327,4.0,11.0,39,0.00,,,0.00,,2013-10-03 17:52:00,
2013-10-03 11:12:00,64.0,37.0,30.01,North,5,4.0,14.0,37,0.00,,,0.00,,2013-10-03 18:12:00,
2013-10-03 11:22:00,65.0,37.0,30.00,NW,322,2.0,14.0,36,0.00,,,0.00,,2013-10-03 18:22:00,
2013-10-03 11:52:00,67.0,37.0,30.00,North,350,5.0,13.0,33,0.00,,,0.00,,2013-10-03 18:52:00,
2013-10-03 12:21:00,68.0,36.0,29.99,North,350,6.0,14.0,31,0.00,,,0.00,,2013-10-03 19:21:00,
2013-10-03 12:52:00,69.0,36.0,29.99,NW,325,5.0,12.0,30,0.00,,,0.00,,2013-10-03 19:52:00,
2013-10-03 13:11:00,69.0,35.0,29.98,NNW,343,4.0,14.0,29,0.00,,,0.00,,2013-10-03 20:11:00,
2013-10-03 13:21:00,70.0,36.0,29.97,NW,315,4.0,12.0,29,0.00,,,0.00,,2013-10-03 20:21:00,
2013-10-03 13:42:00,70.0,34.0,29.96,NNW,329,6.0,13.0,27,0.00,,,0.00,,2013-10-03 20:42:00,
2013-10-03 13:52:00,71.0,34.0,29.96,NNW,334,6.0,11.0,26,0.00,,,0.00,,2013-10-03 20:52:00,
2013-10-03 14:21:00,72.0,34.0,29.94,NW,315,3.0,11.0,25,0.00,,,0.00,,2013-10-03 21:21:00,
2013-10-03 14:54:00,73.0,35.0,29.93,NW,325,5.0,11.0,25,0.00,,,0.00,,2013-10-03 21:54:00,
2013-10-03 15:13:00,73.0,35.0,29.93,North,350,5.0,15.0,25,0.00,,,0.00,,2013-10-03 22:13:00,
2013-10-03 15:23:00,74.0,35.0,29.93,NNW,339,4.0,19.0,24,0.00,,,0.00,,2013-10-03 22:23:00,
2013-10-03 15:43:00,73.0,32.0,29.92,North,9,7.0,15.0,22,0.00,,,0.00,,2013-10-03 22:43:00,
2013-10-03 15:54:00,74.0,34.0,29.91,NW,322,6.0,14.0,23,0.00,,,0.00,,2013-10-03 22:54:00,
2013-10-03 16:21:00,74.0,33.0,29.90,NW,319,6.0,17.0,22,0.00,,,0.00,,2013-10-03 23:21:00,
2013-10-03 16:52:00,74.0,33.0,29.89,NW,322,5.0,17.0,22,0.00,,,0.00,,2013-10-03 23:52:00,
2013-10-03 17:12:00,75.0,34.0,29.88,NNW,331,5.0,15.0,22,0.00,,,0.00,,2013-10-04 00:12:00,
2013-10-03 17:21:00,74.0,32.0,29.88,NNE,29,4.0,15.0,21,0.00,,,0.00,,2013-10-04 00:21:00,
2013-10-03 17:42:00,74.0,33.0,29.88,NW,323,6.0,13.0,22,0.00,,,0.00,,2013-10-04 00:42:00,
2013-10-03 17:52:00,73.0,33.0,29.88,NNW,332,4.0,18.0,23,0.00,,,0.00,,2013-10-04 00:52:00,
2013-10-03 18:12:00,73.0,33.0,29.87,NW,306,6.0,24.0,23,0.00,,,0.00,,2013-10-04 01:12:00,
2013-10-03 18:21:00,73.0,33.0,29.88,NNW,329,6.0,15.0,23,0.00,,,0.00,,2013-10-04 01:21:00,
2013-10-03 18:52:00,71.0,32.0,29.88,NNW,338,5.0,13.0,24,0.00,,,0.00,,2013-10-04 01:52:00,
2013-10-03 19:22:00,70.0,33.0,29.88,NW,320,6.0,23.0,25,0.00,,,0.00,,2013-10-04 02:22:00,
2013-10-03 19:52:00,69.0,32.0,29.90,NNW,337,5.0,12.0,25,0.00,,,0.00,,2013-10-04 02:52:00,
2013-10-03 20:22:00,69.0,29.0,29.90,NNW,333,3.0,10.0,22,0.00,,,0.00,,2013-10-04 03:22:00,
2013-10-03 20:59:00,68.0,27.0,29.91,North,355,3.0,12.0,21,0.00,,,0.00,,2013-10-04 03:59:00,
2013-10-03 22:04:00,66.0,26.0,29.93,NNW,337,1.0,6.0,22,0.00,,,0.00,,2013-10-04 05:04:00,
2013-10-03 22:26:00,66.0,26.0,29.94,NW,319,2.0,8.0,22,0.00,,,0.00,,2013-10-04 05:26:00,
2013-10-03 22:57:00,65.0,26.0,29.95,North,355,2.0,8.0,23,0.00,,,0.00,,2013-10-04 05:57:00,
2013-10-03 23:24:00,64.0,28.0,29.96,North,9,2.0,6.0,26,0.00,,,0.00,,2013-10-04 06:24:00,
2013-10-03 23:56:00,64.0,28.0,29.96,North,5,2.0,8.0,26,0.00,,,0.00,,2013-10-04 06:56:00,